createdAt,value
2023-01-12T00:00:21.679Z,17.13
2023-01-12T00:05:23.351Z,21.58
2023-01-12T00:10:25.057Z,23.75
2023-01-12T00:15:58.560Z,26.88
2023-01-12T00:21:00.257Z,25.60
2023-01-12T00:26:01.994Z,21.83
2023-01-12T00:31:09.559Z,26.30
2023-01-12T00:36:16.673Z,24.27
2023-01-12T00:41:38.256Z,28.77
2023-01-12T00:46:39.876Z,22.52
2023-01-12T00:51:41.919Z,21.70
2023-01-12T00:56:43.596Z,23.88
2023-01-12T01:01:45.284Z,30.40
2023-01-12T01:06:47.028Z,25.73
2023-01-12T01:11:48.688Z,32.30
2023-01-12T01:16:50.376Z,30.83
2023-01-12T01:21:51.995Z,31.60
2023-01-12T01:26:53.672Z,31.40
2023-01-12T01:31:55.818Z,33.30
2023-01-12T01:36:57.519Z,30.83
2023-01-12T01:41:59.222Z,40.47
2023-01-12T01:47:12.027Z,36.65
2023-01-12T01:52:20.946Z,38.00
2023-01-12T01:57:30.381Z,36.97
2023-01-12T02:02:32.408Z,31.63
2023-01-12T02:07:34.433Z,29.58
2023-01-12T02:12:54.844Z,33.42
2023-01-12T02:23:58.201Z,28.17
2023-01-12T02:29:25.761Z,23.08
2023-01-12T02:34:42.652Z,28.00
2023-01-12T02:39:59.905Z,28.08
2023-01-12T02:45:22.912Z,28.35
2023-01-12T02:50:35.539Z,33.05
2023-01-12T02:55:39.409Z,33.30
2023-01-12T03:00:43.772Z,26.63
2023-01-12T03:05:45.915Z,29.05
2023-01-12T03:11:16.783Z,30.25
2023-01-12T03:16:23.054Z,28.13
2023-01-12T03:21:36.260Z,21.75
2023-01-12T03:26:43.583Z,15.50
2023-01-12T03:31:45.766Z,8.98
2023-01-12T03:37:03.332Z,9.23
2023-01-12T03:42:12.124Z,11.52
2023-01-12T03:47:28.885Z,7.53
2023-01-12T03:52:31.356Z,7.25
2023-01-12T03:57:33.794Z,6.95
2023-01-12T04:02:35.550Z,3.75
2023-01-12T04:07:37.179Z,4.13
2023-01-12T04:12:38.758Z,3.13
2023-01-12T04:17:40.538Z,4.78
2023-01-12T04:22:44.967Z,2.10
2023-01-12T04:27:49.622Z,3.03
2023-01-12T04:32:51.477Z,3.28
2023-01-12T04:37:53.834Z,1.27
2023-01-12T04:43:02.417Z,3.80
2023-01-12T04:48:10.435Z,3.10
2023-01-12T04:53:13.095Z,4.60
2023-01-12T04:58:14.804Z,7.35
2023-01-12T05:03:16.570Z,8.75
2023-01-12T05:08:36.883Z,10.98
2023-01-12T05:13:38.552Z,16.95
2023-01-12T05:18:40.175Z,15.35
2023-01-12T05:23:41.799Z,18.75
2023-01-12T05:28:43.632Z,27.00
2023-01-12T05:33:46.024Z,27.67
2023-01-12T05:38:47.702Z,30.88
2023-01-12T05:43:52.717Z,29.92
2023-01-12T05:48:56.428Z,21.00
2023-01-12T05:53:58.386Z,37.35
2023-01-12T05:59:01.789Z,29.95
2023-01-12T06:04:03.447Z,35.78
2023-01-12T06:09:05.290Z,33.17
2023-01-12T06:14:08.669Z,32.28
2023-01-12T06:19:12.802Z,36.80
2023-01-12T06:24:14.878Z,31.17
2023-01-12T06:29:16.526Z,40.83
2023-01-12T06:34:18.243Z,34.55
2023-01-12T06:39:19.835Z,31.35
2023-01-12T06:44:21.422Z,33.53
2023-01-12T06:49:23.075Z,39.35
2023-01-12T06:54:24.668Z,37.75
2023-01-12T06:59:26.280Z,34.47
2023-01-12T07:04:27.970Z,36.85
2023-01-12T07:09:29.580Z,29.75
2023-01-12T07:14:31.274Z,35.67
2023-01-12T07:19:32.883Z,28.45
2023-01-12T07:24:34.756Z,30.67
2023-01-12T07:29:36.338Z,26.52
2023-01-12T07:34:37.986Z,14.45
2023-01-12T07:39:39.600Z,24.08
2023-01-12T07:44:42.051Z,33.15
2023-01-12T07:49:43.739Z,29.90
2023-01-12T07:54:45.345Z,33.25
2023-01-12T07:59:46.961Z,27.00
2023-01-12T08:04:48.698Z,30.25
2023-01-12T08:09:50.618Z,30.33
2023-01-12T08:14:52.309Z,33.42
2023-01-12T08:20:00.354Z,29.70
2023-01-12T08:25:16.586Z,26.60
2023-01-12T08:30:22.873Z,30.98
2023-01-12T08:35:28.052Z,27.00
2023-01-12T08:40:49.619Z,30.45
2023-01-12T08:45:51.264Z,34.55
2023-01-12T08:50:54.249Z,34.83
2023-01-12T08:55:56.461Z,27.90
2023-01-12T09:01:05.991Z,29.73
2023-01-12T09:06:13.654Z,22.45
2023-01-12T09:11:15.876Z,30.58
2023-01-12T09:16:19.279Z,29.42
2023-01-12T09:21:22.812Z,33.38
2023-01-12T09:26:28.330Z,34.90
2023-01-12T09:31:32.318Z,40.00
2023-01-12T09:36:36.160Z,31.98
2023-01-12T09:41:59.697Z,23.50
2023-01-12T09:47:04.125Z,26.63
2023-01-12T09:52:15.094Z,28.33
2023-01-12T09:57:40.028Z,27.95
2023-01-12T10:02:52.054Z,32.25
2023-01-12T10:07:56.162Z,31.77
2023-01-12T10:13:04.951Z,38.08
2023-01-12T10:18:21.199Z,39.00
2023-01-12T10:23:27.941Z,27.80
2023-01-12T10:28:36.158Z,33.22
2023-01-12T10:33:37.752Z,36.95
2023-01-12T10:39:03.741Z,31.98
2023-01-12T10:44:13.071Z,30.10
2023-01-12T10:49:18.081Z,36.50
2023-01-12T10:54:22.608Z,29.55
2023-01-12T10:59:29.361Z,31.30
2023-01-12T11:04:39.058Z,32.67
2023-01-12T11:09:43.055Z,33.50
2023-01-12T11:14:58.175Z,27.00
2023-01-12T11:20:02.126Z,29.77
2023-01-12T11:25:14.602Z,33.45
2023-01-12T11:30:37.141Z,28.48
2023-01-12T11:35:47.040Z,22.77
2023-01-12T11:40:49.289Z,27.48
2023-01-12T11:45:59.395Z,31.13
2023-01-12T11:51:01.501Z,27.80
2023-01-12T11:56:09.082Z,31.75
2023-01-12T12:01:21.833Z,29.90
2023-01-12T12:06:31.093Z,30.20
2023-01-12T12:11:46.146Z,28.37
2023-01-12T12:17:09.742Z,31.88
2023-01-12T12:22:11.335Z,28.50
2023-01-12T12:27:25.838Z,28.90
2023-01-12T12:32:49.049Z,34.92
2023-01-12T12:38:22.759Z,31.17
2023-01-12T12:43:52.541Z,24.10
2023-01-12T12:49:07.836Z,29.97
2023-01-12T12:54:18.575Z,30.05
2023-01-12T12:59:38.596Z,23.33
2023-01-12T13:04:43.315Z,27.65
2023-01-12T13:09:46.697Z,20.67
2023-01-12T13:15:25.024Z,20.90
2023-01-12T13:20:49.813Z,27.50
2023-01-12T13:25:56.877Z,20.60
2023-01-12T13:31:00.344Z,21.88
2023-01-12T13:36:08.101Z,20.52
2023-01-12T13:41:13.872Z,12.82
2023-01-12T13:46:18.475Z,11.18
2023-01-12T13:51:25.850Z,14.50
2023-01-12T13:56:28.826Z,8.10
2023-01-12T14:01:39.570Z,22.70
2023-01-12T14:07:11.329Z,14.60
2023-01-12T14:12:34.311Z,16.92
2023-01-12T14:17:57.723Z,15.20
2023-01-12T14:23:28.786Z,21.00
2023-01-12T14:28:31.647Z,18.45
2023-01-12T14:33:36.895Z,17.05
2023-01-12T14:38:43.668Z,14.75
2023-01-12T14:44:04.443Z,9.38
2023-01-12T14:49:25.756Z,12.10
2023-01-12T14:54:30.987Z,6.80
2023-01-12T14:59:34.997Z,11.07
2023-01-12T15:04:36.791Z,11.35
2023-01-12T15:09:54.032Z,12.55
2023-01-12T15:15:49.141Z,10.32
2023-01-12T15:21:09.898Z,10.85
2023-01-12T15:26:14.199Z,9.18
2023-01-12T15:31:29.001Z,9.93
2023-01-12T15:36:30.970Z,8.55
2023-01-12T15:41:51.398Z,7.15
2023-01-12T15:46:53.154Z,10.20
2023-01-12T15:51:54.918Z,11.45
2023-01-12T15:56:59.555Z,10.10
2023-01-12T16:02:01.454Z,12.63
2023-01-12T16:07:03.167Z,13.52
2023-01-12T16:12:05.121Z,10.25
2023-01-12T16:17:07.024Z,11.75
2023-01-12T16:22:21.695Z,12.52
2023-01-12T16:27:25.152Z,11.05
2023-01-12T16:32:27.551Z,10.65
2023-01-12T16:37:33.160Z,17.70
2023-01-12T16:42:35.033Z,13.70
2023-01-12T16:47:36.842Z,14.50
2023-01-12T16:52:38.770Z,21.40
2023-01-12T16:57:41.193Z,16.17
2023-01-12T17:02:43.178Z,17.83
2023-01-12T17:07:47.207Z,22.13
2023-01-12T17:12:54.305Z,20.63
2023-01-12T17:18:06.048Z,15.77
2023-01-12T17:23:08.016Z,20.70
2023-01-12T17:28:10.026Z,17.08
2023-01-12T17:33:11.794Z,22.13
2023-01-12T17:38:13.665Z,15.43
2023-01-12T17:43:15.337Z,17.92
2023-01-12T17:48:19.580Z,16.23
2023-01-12T17:53:21.377Z,19.33
2023-01-12T17:58:23.043Z,25.33
2023-01-12T18:03:24.867Z,24.92
2023-01-12T18:08:26.727Z,25.05
2023-01-12T18:13:28.409Z,24.40
2023-01-12T18:18:30.486Z,22.10
2023-01-12T18:23:32.571Z,25.80
2023-01-12T18:28:36.670Z,18.77
2023-01-12T18:33:38.678Z,19.95
2023-01-12T18:38:41.523Z,20.90
2023-01-12T18:43:44.494Z,21.35
2023-01-12T18:48:47.667Z,21.40
2023-01-12T18:53:49.376Z,15.52
2023-01-12T18:58:52.034Z,18.85
2023-01-12T19:03:53.801Z,22.00
2023-01-12T19:09:14.204Z,20.55
2023-01-12T19:14:34.334Z,22.27
2023-01-12T19:19:36.173Z,16.45
2023-01-12T19:24:56.412Z,22.65
2023-01-12T19:35:10.221Z,27.42
2023-01-12T19:40:20.362Z,22.38
2023-01-12T19:45:22.120Z,27.80
2023-01-12T19:50:24.009Z,22.52
2023-01-12T19:55:25.915Z,22.55
2023-01-12T20:00:28.184Z,17.58
2023-01-12T20:05:54.455Z,23.23
2023-01-12T20:11:04.771Z,18.02
2023-01-12T20:16:10.991Z,20.40
2023-01-12T20:21:12.850Z,21.27
2023-01-12T20:26:15.647Z,16.10
2023-01-12T20:31:20.314Z,21.52
2023-01-12T20:36:22.049Z,19.33
2023-01-12T20:41:23.834Z,13.18
2023-01-12T20:46:26.272Z,18.30
2023-01-12T20:51:29.419Z,19.13
2023-01-12T20:56:31.832Z,21.85
2023-01-12T21:01:33.897Z,16.77
2023-01-12T21:06:35.898Z,23.35
2023-01-12T21:11:37.621Z,22.85
2023-01-12T21:16:39.515Z,25.77
2023-01-12T21:21:41.300Z,26.55
2023-01-12T21:26:43.003Z,21.08
2023-01-12T21:31:44.678Z,25.30
2023-01-12T21:36:46.479Z,25.75
2023-01-12T21:42:06.668Z,20.10
2023-01-12T21:47:08.741Z,22.92
2023-01-12T21:52:10.644Z,24.17
2023-01-12T21:57:12.296Z,28.17
2023-01-12T22:02:14.239Z,27.08
2023-01-12T22:07:16.122Z,25.58
2023-01-12T22:12:17.748Z,22.92
2023-01-12T22:17:19.436Z,24.45
2023-01-12T22:22:21.181Z,28.58
2023-01-12T22:27:25.070Z,31.98
2023-01-12T22:32:28.812Z,24.63
2023-01-12T22:37:33.822Z,35.53
2023-01-12T22:42:54.120Z,33.17
2023-01-12T22:52:57.643Z,38.28
2023-01-12T22:57:59.368Z,33.47
2023-01-12T23:03:01.604Z,32.78
2023-01-12T23:08:05.826Z,32.50
2023-01-12T23:13:17.740Z,27.65
2023-01-12T23:18:29.370Z,29.80
2023-01-12T23:23:32.041Z,25.15
2023-01-12T23:28:36.649Z,34.33
2023-01-12T23:33:39.343Z,29.33
2023-01-12T23:38:41.495Z,30.23
2023-01-12T23:43:43.366Z,27.15
2023-01-12T23:48:45.158Z,26.80
2023-01-12T23:53:47.606Z,22.85
2023-01-12T23:58:49.450Z,23.33
